Tiempo atmosférico en la estación meteorológica de Santibañez De Vidriales, Zamora (737 m.)



Fecha
DESCASC
Temp. máxima en grados centígrados (hora)
DESCASC
Temp. mínima en grados centígrados (hora)
DESCASC
Temp. media en grados centígrados
DESCASC
Racha de viento máxima en m/sg (hora)
DESCASC
Velocidad máxima media en intervalos de 10 minutos(hora)
DESCASC
Precipitaciones diarias en mm
DESCASC
Precipitaciones de 00:00 a 06:00 en mm
DESCASC
Precipitaciones de 06:00 a 12:00 en mm
DESCASC
Precipitaciones de 12:00 a 18:00 en mm
DESCASC
Precipitaciones de 18:00 a 24:00 en mm
DESCASC
20-10-2019 -- (--) -- (--) -- -- (--) -- (--) -- 2.4 0.6 0 --
19-10-2019 12 (15:10) 8.5 (23:00) 10.3 9.17 (02:20) 5.83 (02:10) 31.6 0 2.4 17.8 11.4
18-10-2019 15.6 (15:40) 9.3 (09:10) 12.5 8.89 (16:30) 5.83 (16:40) 0.2 0.2 0 0 0
17-10-2019 18.9 (15:50) 11.5 (00:00) 15.2 13.33 (15:10) 7.22 (14:50) 10.6 4.6 0.6 0 5.4
16-10-2019 14 (16:50) 9.2 (00:00) 11.6 11.67 (13:00) 7.22 (12:40) 0.8 0.6 0.2 0 0
15-10-2019 14.1 (14:50) 3.4 (00:00) 8.8 11.11 (15:00) 7.78 (15:30) 0.2 0 0 0 0.2
14-10-2019 15.7 (00:00) 6.6 (00:00) 11.1 12.78 (16:10) 7.78 (16:10) 9.4 0 6.2 3.2 0
13-10-2019 21.4 (16:50) 12 (00:00) 16.7 11.67 (17:50) 8.61 (12:40) 0 0 0 0 0
12-10-2019 26.6 (16:30) 9.1 (00:00) 17.9 16.67 (16:40) 10.83 (16:40) 0 0 0 0 0
10-10-2019 22.5 (17:30) 4.5 (00:00) 13.5 5.83 (12:20) 3.61 (12:00) 0 0 0 0 0
09-10-2019 22.4 (17:50) 7.3 (00:00) 14.8 6.67 (11:50) 4.44 (11:40) 0 0 0 0 0
08-10-2019 28.6 (15:50) 7 (00:00) 17.8 10.83 (16:20) 6.67 (17:50) 0 0 0 0 0
07-10-2019 29.1 (17:50) 5.9 (00:00) 17.5 6.11 (18:50) 3.89 (18:50) 0 0 0 0 0
06-10-2019 25.6 (17:10) 4 (00:00) 14.8 7.78 (19:40) 4.17 (17:40) 0 0 0 0 0
05-10-2019 25.2 (17:20) 8 (05:30) 16.6 6.94 (17:50) 3.61 (16:40) 0 0 0 0 0
04-10-2019 25.6 (17:10) 6.6 (00:00) 16.1 6.94 (19:30) 4.17 (18:40) 0 0 0 0 0
03-10-2019 26.7 (17:50) 4.5 (00:00) 15.6 5 (17:10) 3.33 (19:10) 0 0 0 0 0
02-10-2019 22 (17:50) 7.1 (00:00) 14.5 8.06 (12:00) 5 (11:40) 0 0 0 0 0
01-10-2019 24.6 (16:10) 8.3 (00:00) 16.5 10.56 (15:30) 6.11 (17:30) 0 0 0 0 0
30-09-2019 27.5 (17:40) 7.5 (00:00) 17.5 10 (17:20) 5.83 (18:30) 0 0 0 0 0
29-09-2019 27.7 (16:30) 2 (00:00) 14.9 10.83 (18:30) 7.22 (17:20) 0 0 0 0 0
28-09-2019 26.5 (17:50) 3 (00:00) 14.8 6.94 (17:40) 4.44 (19:20) 0 0 0 0 0
27-09-2019 25.4 (15:50) 2.9 (00:00) 14.1 9.17 (17:20) 5.83 (17:40) 0 0 0 0 0
26-09-2019 26.4 (17:30) 5.4 (00:00) 15.9 6.94 (18:00) 4.72 (18:20) 0 0 0 0 0
25-09-2019 22.5 (17:10) 5.3 (00:00) 13.9 7.78 (18:10) 5.28 (15:20) 0 0 0 0 0
24-09-2019 22.4 (17:30) 12.1 (00:00) 17.3 13.06 (18:00) 7.78 (11:30) 0 0 0 0 0
23-09-2019 21.9 (17:50) 5.5 (00:00) 13.7 10.28 (19:50) 6.67 (18:50) 0 0 0 0 0
22-09-2019 20.5 (17:30) 9.6 (00:00) 15.1 10.83 (16:20) 6.67 (19:10) 0 0 0 0 0

Gráficas

Temp. máximas Temp. mínimas Temp. medias Precipitaciones Rachas de viento máximas Velocidades máximas media en intervalos de 10 minutos

Datos horarios

Fecha y hora oficial Temperatura (ºC) Velocidad del viento (km/h) Dirección del viento Racha (km/h) Dirección de racha Precipitación (mm) Presión (hPa) Tendencia (hPa) Humedad (%)
2019-10-21 23:00:00 7.5 3 Norte 6 Nordeste 0 -- -- 86
2019-10-21 22:00:00 7.3 2 Norte 5 Norte 0 -- -- 86
2019-10-21 21:00:00 7.2 0 Calma 3 Nordeste 0 -- -- 85
2019-10-21 20:00:00 9 3 Nordeste 9 Nordeste 0 -- -- 73
2019-10-21 19:00:00 11.2 6 Este 14 Este 0 -- -- 65
2019-10-21 18:00:00 11.6 8 Este 17 Sudeste 0 -- -- 62
2019-10-21 17:00:00 12.7 8 Sudeste 21 Sudeste 0 -- -- 59
2019-10-21 16:00:00 11.7 7 Sudeste 20 Sudeste 0 -- -- 58
2019-10-21 15:00:00 11.6 12 Sudeste 20 Sudeste 0 -- -- 65
2019-10-21 14:00:00 10.4 8 Sudeste 15 Sudeste 0 -- -- 77
2019-10-21 13:00:00 8.9 3 Nordeste 6 Nordeste 0 -- -- 85
2019-10-21 12:00:00 7 2 Sudeste 6 Este 0 -- -- 93
2019-10-21 11:00:00 4.7 0 Calma 3 Sudoeste 0 -- -- 97
2019-10-21 10:00:00 2.9 0 Calma 3 Sur 0 -- -- 97
2019-10-21 09:00:00 1.3 0 Calma 4 Sudoeste 0 -- -- 97
2019-10-21 08:00:00 0.9 0 Calma 3 Noroeste 0 -- -- 97
2019-10-21 07:00:00 0.8 2 Noroeste 7 Sudeste 0 -- -- 96
2019-10-21 06:00:00 1.3 0 Calma 4 Sudoeste 0 -- -- 95
2019-10-21 05:00:00 1.7 0 Calma 7 Oeste 0 -- -- 95
2019-10-21 04:00:00 2.5 0 Calma 5 Oeste 0 -- -- 95
2019-10-21 03:00:00 2.9 0 Calma 6 Noroeste 0 -- -- 95
2019-10-21 02:00:00 3.4 2 Noroeste 8 Noroeste 0 -- -- 95
2019-10-21 01:00:00 4.1 0 Calma 5 Sudoeste 0 -- -- 93
2019-10-21 00:00:00 4.9 4 Sudoeste 5 Sur 0 -- -- 92
2019-10-20 23:00:00 5.9 0 Calma 5 Norte 0 -- -- 90
2019-10-20 22:00:00 6.8 3 Norte 8 Noroeste 0 -- -- 86
2019-10-20 21:00:00 7.6 0 Calma 9 Noroeste 0 -- -- 84
2019-10-20 20:00:00 8.3 6 Noroeste 11 Noroeste 0 -- -- 82
2019-10-20 19:00:00 9 6 Oeste 29 Norte 1.8 -- -- 80
2019-10-20 18:00:00 11.6 21 Noroeste 40 Norte 0 -- -- 63
2019-10-20 17:00:00 13.6 11 Norte 23 Noroeste 0 -- -- 52
2019-10-20 16:00:00 13 10 Noroeste 18 Norte 0 -- -- 53
2019-10-20 15:00:00 11.5 12 Noroeste 20 Noroeste 0 -- -- 60
2019-10-20 14:00:00 11.1 13 Noroeste 25 Noroeste 0 -- -- 65
2019-10-20 13:00:00 10.4 10 Noroeste 17 Noroeste 0 -- -- 72
2019-10-20 12:00:00 9.6 6 Noroeste 11 Noroeste 0 -- -- 82
2019-10-20 11:00:00 8 4 Noroeste 8 Noroeste 0 -- -- 89
2019-10-20 10:00:00 7.2 2 Sudoeste 6 Sudoeste 0 -- -- 91
2019-10-20 09:00:00 7 3 Norte 19 Noroeste 0 -- -- 88
2019-10-20 08:00:00 7.1 13 Noroeste 26 Noroeste 0.6 -- -- 86
2019-10-20 07:00:00 7 3 Oeste 9 Noroeste 0 -- -- 90
2019-10-20 06:00:00 7.1 8 Noroeste 13 Norte 0.2 -- -- 91
2019-10-20 05:00:00 7.5 4 Noroeste 10 Noroeste 0 -- -- 91
2019-10-20 04:00:00 8.3 3 Oeste 8 Oeste 0.4 -- -- 95
2019-10-20 03:00:00 8.2 4 Oeste 6 Oeste 0 -- -- 93
2019-10-20 02:00:00 8.2 4 Oeste 10 Oeste 1 -- -- 94
2019-10-20 01:00:00 8.3 7 Noroeste 21 Norte 0.8 -- -- 94
2019-10-20 00:00:00 8.7 10 Oeste 21 Noroeste 0.6 -- -- 95
2019-10-19 23:00:00 8.5 5 Noroeste 16 Norte 0.2 -- -- 95
2019-10-19 22:00:00 8.9 10 Norte 16 Norte 1 -- -- 96
2019-10-19 21:00:00 8.8 9 Noroeste 26 Este 6.6 -- -- 96
2019-10-19 20:00:00 8.8 10 Nordeste 22 Este 1.6 -- -- 96
2019-10-19 19:00:00 9.2 10 Nordeste 17 Este 1.4 -- -- 97
2019-10-19 18:00:00 9.2 9 Norte 33 Norte 6.8 -- -- 97
2019-10-19 17:00:00 10.3 6 Noroeste 26 Sur 4.2 -- -- 94
2019-10-19 16:00:00 11.7 6 Sudeste 15 Sur 2 -- -- 94
2019-10-19 15:00:00 11.9 12 Sur 25 Sudoeste 2.2 -- -- 94
2019-10-19 14:00:00 11.3 11 Sur 20 Sur 2.2 -- -- 95
2019-10-19 13:00:00 11.4 18 Sur 29 Sur 0.4 -- -- 91
2019-10-19 12:00:00 10.6 17 Sur 31 Sur 1.2 -- -- 94
2019-10-19 11:00:00 10.3 15 Sur 27 Sur 0.8 -- -- 94
2019-10-19 10:00:00 10.3 18 Sur 28 Sur 0.2 -- -- 92
2019-10-19 09:00:00 10.5 16 Sudoeste 25 Sudoeste 0.2 -- -- 91
2019-10-19 08:00:00 10.6 16 Sur 26 Sur 0 -- -- 89
2019-10-19 07:00:00 10.6 14 Sur 23 Sur 0 -- -- 89
2019-10-19 06:00:00 10.8 12 Sur 21 Sudoeste 0 -- -- 87
2019-10-19 05:00:00 11 11 Sudoeste 23 Sudoeste 0 -- -- 83
2019-10-19 04:00:00 11.3 19 Sudoeste 31 Sudoeste 0 -- -- 81
2019-10-19 03:00:00 11.4 14 Sudoeste 33 Sudoeste 0 -- -- 82
2019-10-19 02:00:00 11.3 18 Sudoeste 26 Sudoeste 0 -- -- 84
2019-10-19 01:00:00 11.5 10 Sudoeste 16 Sudoeste 0 -- -- 84
2019-10-19 00:00:00 11.3 5 Sudoeste 14 Sudoeste 0 -- -- 84
2019-10-18 23:00:00 11.2 8 Sudoeste 15 Sudoeste 0 -- -- 84
2019-10-18 22:00:00 11.7 10 Sudoeste 21 Sudoeste 0 -- -- 82
2019-10-18 21:00:00 12.1 16 Sudoeste 24 Sudoeste 0 -- -- 79
2019-10-18 20:00:00 12.6 9 Sudoeste 29 Sudoeste 0 -- -- 77
2019-10-18 19:00:00 13.3 19 Sudoeste 31 Sudoeste 0 -- -- 71
2019-10-18 18:00:00 14 19 Sudoeste 32 Sudoeste 0 -- -- 69
2019-10-18 17:00:00 14.9 19 Sudoeste 32 Sudoeste 0 -- -- 65
2019-10-18 16:00:00 15.4 19 Sudoeste 28 Sudoeste 0 -- -- 63
2019-10-18 15:00:00 14.6 17 Sudoeste 29 Sudoeste 0 -- -- 70
2019-10-18 14:00:00 13.9 8 Oeste 21 Sudoeste 0 -- -- 69
2019-10-18 13:00:00 12.9 14 Sudoeste 21 Sudoeste 0 -- -- 78
2019-10-18 12:00:00 11.7 8 Sudoeste 14 Oeste 0 -- -- 83
2019-10-18 11:00:00 10.7 6 Sudoeste 10 Sudoeste 0 -- -- 87
2019-10-18 10:00:00 9.8 2 Sur 7 Sudoeste 0 -- -- 92
2019-10-18 09:00:00 9.4 2 Sur 5 Noroeste 0 -- -- 88
2019-10-18 08:00:00 10 4 Oeste 17 Oeste 0 -- -- 84
2019-10-18 07:00:00 10.6 13 Noroeste 22 Noroeste 0 -- -- 86
2019-10-18 06:00:00 10.7 7 Noroeste 21 Oeste 0 -- -- 88
2019-10-18 05:00:00 11.1 3 Oeste 10 Sudoeste 0 -- -- 90
2019-10-18 04:00:00 11.6 2 Sudeste 11 Sudoeste 0 -- -- 92
2019-10-18 03:00:00 11.6 0 Calma 6 Noroeste 0.2 -- -- 94
2019-10-18 02:00:00 12.3 4 Norte 12 Sudoeste 0 -- -- 93
2019-10-18 01:00:00 12.8 5 Sudoeste 14 Sudoeste 0 -- -- 93
2019-10-18 00:00:00 13 9 Sudoeste 22 Oeste 0.6 -- -- 94
2019-10-17 23:00:00 13.6 6 Oeste 13 Sudoeste 4.8 -- -- 93
2019-10-17 22:00:00 13.9 6 Sur 14 Sudoeste 0 -- -- 90
2019-10-17 21:00:00 14.1 10 Sudoeste 20 Sudoeste 0 -- -- 84
2019-10-17 20:00:00 15.5 14 Sudoeste 23 Sudoeste 0 -- -- 76
2019-10-17 19:00:00 16.6 13 Sudoeste 32 Sudoeste 0 -- -- 68
2019-10-17 18:00:00 18.1 21 Sudoeste 37 Oeste 0 -- -- 61
2019-10-17 17:00:00 18.4 19 Sudoeste 38 Sudoeste 0 -- -- 61
2019-10-17 16:00:00 18.9 23 Sudoeste 48 Oeste 0 -- -- 59
2019-10-17 15:00:00 17.9 24 Oeste 43 Sudoeste 0 -- -- 59
2019-10-17 14:00:00 17.9 25 Sudoeste 43 Sudoeste 0 -- -- 64
2019-10-17 13:00:00 16.6 21 Sudoeste 33 Sudoeste 0 -- -- 70
2019-10-17 12:00:00 16 17 Sudoeste 30 Sudoeste 0 -- -- 77
2019-10-17 11:00:00 14.5 11 Sudoeste 22 Sudoeste 0 -- -- 94
2019-10-17 10:00:00 12.5 4 Sur 7 Sur 0 -- -- 97
2019-10-17 09:00:00 12 3 Sudeste 5 Sudeste 0.2 -- -- 96
2019-10-17 08:00:00 11.8 4 Sur 5 Sur 0 -- -- 96
2019-10-17 07:00:00 11.6 4 Sur 10 Sur 0.4 -- -- 96
2019-10-17 06:00:00 11.6 5 Sur 9 Sur 0.2 -- -- 96
2019-10-17 05:00:00 11.6 7 Sur 12 Sur 0.4 -- -- 96
2019-10-17 04:00:00 11.5 4 Sudeste 8 Sur 0.4 -- -- 95
2019-10-17 03:00:00 11.5 4 Sur 7 Sur 2 -- -- 94
2019-10-17 02:00:00 11.5 4 Sur 8 Sudoeste 0.8 -- -- 94
2019-10-17 01:00:00 11.6 6 Sudoeste 16 Sudoeste 0.8 -- -- 92
2019-10-17 00:00:00 12 10 Sudoeste 30 Sudoeste 0 -- -- 90
2019-10-16 23:00:00 12 9 Sudoeste 24 Sudoeste 0 -- -- 90
2019-10-16 22:00:00 12.3 14 Sudoeste 25 Sudoeste 0 -- -- 87
2019-10-16 21:00:00 12.3 8 Sudoeste 24 Sudoeste 0 -- -- 86
2019-10-16 20:00:00 12.8 19 Sudoeste 35 Sudoeste 0 -- -- 81
2019-10-16 19:00:00 13.6 13 Sudoeste 32 Sudoeste 0 -- -- 74
2019-10-16 18:00:00 14 21 Sudoeste 32 Sudoeste 0 -- -- 73
2019-10-16 17:00:00 14 15 Sudoeste 30 Sudoeste 0 -- -- 73
2019-10-16 16:00:00 13.5 15 Sudoeste 33 Sudoeste 0 -- -- 74
2019-10-16 15:00:00 12.9 18 Sudoeste 37 Sudoeste 0 -- -- 77
2019-10-16 14:00:00 12.5 18 Sudoeste 36 Sudoeste 0 -- -- 79
2019-10-16 13:00:00 12.9 25 Sudoeste 42 Sudoeste 0 -- -- 78
2019-10-16 12:00:00 12.6 17 Sudoeste 39 Sudoeste 0 -- -- 82
2019-10-16 11:00:00 10.7 15 Sudoeste 28 Sudoeste 0 -- -- 88
2019-10-16 10:00:00 10 9 Sudoeste 24 Sudoeste 0 -- -- 88
2019-10-16 09:00:00 9.4 9 Sudoeste 17 Sudoeste 0 -- -- 91
2019-10-16 08:00:00 9.4 11 Sudoeste 25 Sudoeste 0 -- -- 91
2019-10-16 07:00:00 9.3 11 Sudoeste 17 Sudoeste 0.2 -- -- 92
2019-10-16 06:00:00 9.2 3 Sur 11 Sudoeste 0.2 -- -- 92
2019-10-16 05:00:00 9.3 6 Sudoeste 16 Sudoeste 0.2 -- -- 91
2019-10-16 04:00:00 9.5 13 Sudoeste 26 Sudoeste 0.2 -- -- 87
2019-10-16 03:00:00 9.9 10 Sudoeste 24 Sudoeste 0 -- -- 84
2019-10-16 02:00:00 9.8 13 Sudoeste 22 Sudoeste 0 -- -- 84
2019-10-16 01:00:00 10.2 15 Sudoeste 29 Sudoeste 0 -- -- 84
2019-10-16 00:00:00 10.1 13 Sudoeste 25 Sudoeste 0 -- -- 87
2019-10-15 23:00:00 10.1 15 Sudoeste 22 Sudoeste 0 -- -- 87
2019-10-15 22:00:00 10 12 Sudoeste 17 Sudoeste 0 -- -- 88
2019-10-15 21:00:00 10.3 3 Sudoeste 10 Sudoeste 0.2 -- -- 87
2019-10-15 20:00:00 10.8 7 Sudoeste 13 Sudoeste 0 -- -- 81
2019-10-15 19:00:00 10.9 11 Sudoeste 25 Sudoeste 0 -- -- 80
2019-10-15 18:00:00 10.7 20 Sudoeste 32 Sudoeste 0 -- -- 82
2019-10-15 17:00:00 10.9 18 Sudoeste 33 Sudoeste 0 -- -- 80
2019-10-15 16:00:00 11.9 17 Sudoeste 39 Sudoeste 0 -- -- 73
2019-10-15 15:00:00 13.5 27 Sudoeste 40 Sudoeste 0 -- -- 64
2019-10-15 14:00:00 13.1 22 Sudoeste 35 Oeste 0 -- -- 64
2019-10-15 13:00:00 13.5 19 Sudoeste 30 Sudoeste 0 -- -- 63
2019-10-15 12:00:00 11.7 15 Sudoeste 26 Sudoeste 0 -- -- 68
2019-10-15 11:00:00 9.6 18 Sudoeste 25 Sudoeste 0 -- -- 81
2019-10-15 10:00:00 6.7 2 Sur 9 Sudeste 0 -- -- 93
2019-10-15 09:00:00 4.1 2 Este 8 Oeste 0 -- -- 96
2019-10-15 08:00:00 4.4 4 Sur 15 Sudoeste 0 -- -- 92
2019-10-15 07:00:00 3.9 6 Este 18 Oeste 0 -- -- 91
2019-10-15 06:00:00 4.7 8 Sudoeste 13 Sudoeste 0 -- -- 94
2019-10-15 05:00:00 5.1 2 Norte 23 Oeste 0 -- -- 89
2019-10-15 04:00:00 6 13 Oeste 22 Oeste 0 -- -- 88
2019-10-15 03:00:00 4.9 3 Sur 6 Este 0 -- -- 84
2019-10-15 02:00:00 5.9 4 Noroeste 22 Oeste 0 -- -- 78
2019-10-15 01:00:00 6.9 12 Oeste 25 Sudoeste 0 -- -- 72
2019-10-15 00:00:00 6.6 12 Sudoeste 27 Oeste 0 -- -- 80
2019-10-14 23:00:00 6.8 14 Oeste 27 Sudoeste 0 -- -- 80
2019-10-14 22:00:00 6.9 13 Oeste 19 Oeste 0 -- -- 79
2019-10-14 21:00:00 6.9 5 Oeste 13 Noroeste 0 -- -- 77
2019-10-14 20:00:00 8.1 10 Noroeste 34 Oeste 0 -- -- 71
2019-10-14 19:00:00 10.7 13 Oeste 32 Sudoeste 0 -- -- 69
2019-10-14 18:00:00 11.2 17 Oeste 31 Oeste 0 -- -- 68
2019-10-14 17:00:00 10.1 18 Oeste 46 Oeste 1.4 -- -- 80
2019-10-14 16:00:00 12.6 19 Sudoeste 31 Sudoeste 0 -- -- 72
2019-10-14 15:00:00 11.6 14 Sudoeste 29 Sudoeste 0 -- -- 86
2019-10-14 14:00:00 11.1 19 Sudoeste 28 Sur 0.8 -- -- 87
2019-10-14 13:00:00 10.6 12 Sudoeste 36 Sudoeste 1 -- -- 89
2019-10-14 12:00:00 11.8 21 Sudoeste 35 Sudoeste 0 -- -- 81
2019-10-14 11:00:00 10.7 23 Sudoeste 35 Sudoeste 0.2 -- -- 83
2019-10-14 10:00:00 9.1 8 Sur 14 Oeste 1 -- -- 92
2019-10-14 09:00:00 9 10 Oeste 33 Oeste 2.6 -- -- 89
2019-10-14 08:00:00 10.8 21 Oeste 38 Sudoeste 2.2 -- -- 84
2019-10-14 07:00:00 12.9 9 Sur 14 Sur 0.2 -- -- 84
2019-10-14 06:00:00 13.4 9 Sur 12 Sudoeste 0 -- -- 74
2019-10-14 05:00:00 13 7 Sur 11 Sur 0 -- -- 75
2019-10-14 04:00:00 12.6 8 Sudeste 15 Sur 0 -- -- 73
2019-10-14 03:00:00 15 11 Sur 22 Sur 0 -- -- 66
2019-10-14 02:00:00 15 14 Sur 27 Sur 0 -- -- 67
2019-10-14 01:00:00 14.6 17 Sur 25 Sur 0 -- -- 67
2019-10-14 00:00:00 15.7 16 Sur 24 Sur 0 -- -- 62
2019-10-13 23:00:00 15.7 11 Sur 22 Sudoeste 0 -- -- 60
2019-10-13 22:00:00 16.3 12 Sur 24 Sudoeste 0 -- -- 59
2019-10-13 21:00:00 16.7 16 Sur 24 Sur 0 -- -- 58
2019-10-13 20:00:00 17.7 13 Sur 30 Sudoeste 0 -- -- 52
2019-10-13 19:00:00 19.2 19 Sur 40 Sur 0 -- -- 47
2019-10-13 18:00:00 20.1 26 Sudoeste 42 Sudoeste 0 -- -- 49
2019-10-13 17:00:00 21.3 27 Sudoeste 40 Sur 0 -- -- 49
2019-10-13 16:00:00 19.2 21 Sur 34 Sudoeste 0 -- -- 57
2019-10-13 15:00:00 19.8 26 Sudoeste 38 Sudoeste 0 -- -- 55
2019-10-13 14:00:00 18.4 21 Sudoeste 36 Sudoeste 0 -- -- 59
2019-10-13 13:00:00 18.2 25 Sudoeste 41 Sur 0 -- -- 60
2019-10-13 12:00:00 16.9 27 Sudoeste 41 Sudoeste 0 -- -- 64
2019-10-13 11:00:00 15.4 23 Sudoeste 32 Sudoeste 0 -- -- 71
2019-10-13 10:00:00 13.6 11 Sur 18 Sur 0 -- -- 79
2019-10-13 09:00:00 12.7 6 Sur 13 Sur 0 -- -- 83
2019-10-13 08:00:00 12 8 Sudeste 15 Sudeste 0 -- -- 84
2019-10-13 07:00:00 13 4 Sur 24 Sudoeste 0 -- -- 80
2019-10-13 06:00:00 13.1 11 Sudoeste 34 Sudoeste 0 -- -- 78
2019-10-13 05:00:00 13.9 26 Sudoeste 37 Sudoeste 0 -- -- 79
2019-10-13 04:00:00 14.4 3 Sur 8 Sudeste 0 -- -- 81
2019-10-13 03:00:00 14.1 4 Sur 9 Sur 0 -- -- 85
2019-10-13 02:00:00 14 2 Sudoeste 12 Sudoeste 0 -- -- 81
2019-10-13 01:00:00 15.2 8 Sudoeste 12 Sudoeste 0 -- -- 77
2019-10-13 00:00:00 17 7 Sudoeste 22 Sudoeste 0 -- -- 70
2019-10-12 23:00:00 19.3 12 Sudoeste 36 Sur 0 -- -- 60
2019-10-12 22:00:00 21.7 21 Sur 32 Sudoeste 0 -- -- 42
2019-10-12 21:00:00 21.9 16 Sur 27 Sur 0 -- -- 41
2019-10-12 20:00:00 23.2 20 Sur 49 Sur 0 -- -- 38
2019-10-12 19:00:00 24.6 29 Sur 49 Sudoeste 0 -- -- 35
2019-10-12 18:00:00 25.7 32 Sudoeste 53 Sur 0 -- -- 33
2019-10-12 17:00:00 26.6 34 Sudoeste 60 Sudoeste 0 -- -- 32
2019-10-12 16:00:00 26.4 33 Sudoeste 48 Sudoeste 0 -- -- 33
2019-10-12 15:00:00 25.9 33 Sudoeste 56 Sudoeste 0 -- -- 35
2019-10-12 14:00:00 24.6 27 Sudoeste 46 Sudoeste 0 -- -- 43
2019-10-12 13:00:00 22.8 21 Sudoeste 36 Sudoeste 0 -- -- 49
2019-10-12 12:00:00 20.1 10 Oeste 16 Sudoeste 0 -- -- 62
2019-10-12 11:00:00 17 3 Sudoeste 8 Sur 0 -- -- 68
2019-10-12 10:00:00 10.7 2 Este 3 Sudeste 0 -- -- 84
2019-10-12 09:00:00 9.2 3 Este 4 Oeste 0 -- -- 86
2019-10-12 08:00:00 9.4 3 Noroeste 4 Noroeste 0 -- -- 84
2019-10-12 07:00:00 9.4 0 Calma 5 Noroeste 0 -- -- 84
2019-10-12 06:00:00 9.4 0 Calma 4 Nordeste 0 -- -- 84
2019-10-12 05:00:00 10.9 0 Calma 8 Noroeste 0 -- -- 78
2019-10-12 04:00:00 11.3 4 Oeste 6 Oeste 0 -- -- 76
2019-10-12 03:00:00 11.5 3 Noroeste 5 Sur 0 -- -- 76
2019-10-12 02:00:00 13 0 Calma -- -- 0 -- -- 70
2019-10-12 01:00:00 14.2 0 Calma 4 Oeste 0 -- -- 67
2019-10-12 00:00:00 15.4 4 Sudoeste 8 Oeste 0 -- -- 64
2019-10-11 23:00:00 16.8 3 Sudeste 6 Sudeste 0 -- -- 57
2019-10-11 22:00:00 18.2 4 Oeste 12 Oeste 0 -- -- 53
2019-10-11 21:00:00 20 4 Sudoeste 7 Sudoeste 0 -- -- 48
2019-10-11 20:00:00 23.2 4 Sudoeste 20 Oeste 0 -- -- 41
2019-10-11 19:00:00 25.2 13 Sudoeste 32 Sudoeste 0 -- -- 36
2019-10-11 18:00:00 26.4 18 Sudoeste 37 Sudoeste 0 -- -- 34
2019-10-11 17:00:00 26.7 17 Sudoeste 32 Sudoeste 0 -- -- 33
2019-10-11 16:00:00 27.2 22 Sudoeste 36 Oeste 0 -- -- 33
2019-10-11 15:00:00 25.9 8 Sudoeste 22 Sur 0 -- -- 34
2019-10-11 14:00:00 23.3 6 Sudoeste 13 Sudoeste 0 -- -- 35
2019-10-11 13:00:00 20.2 4 Sudeste 10 Sudeste 0 -- -- 38
2019-10-11 12:00:00 17.1 3 Sudeste 6 Este 0 -- -- 45
2019-10-11 11:00:00 12.9 0 Calma 3 Nordeste 0 -- -- 57
2019-10-11 10:00:00 7.6 0 Calma 3 Sur 0 -- -- 73
2019-10-11 09:00:00 3.6 0 Calma 2 Noroeste 0 -- -- 83
2019-10-11 08:00:00 3.1 0 Calma 0 Calma 0 -- -- 84
2019-10-11 07:00:00 3.7 0 Calma 4 Sudoeste 0 -- -- 81
2019-10-11 06:00:00 5.2 3 Sudoeste 4 Sudoeste 0 -- -- 80
2019-10-11 05:00:00 5.3 0 Calma 4 Noroeste 0 -- -- 76
2019-10-11 04:00:00 6.4 0 Calma 4 Oeste 0 -- -- 72
2019-10-11 03:00:00 6.9 2 Oeste 4 Oeste 0 -- -- 71
2019-10-11 02:00:00 6.8 0 Calma 3 Sudoeste 0 -- -- 71
2019-10-11 01:00:00 8 0 Calma 4 Sudoeste 0 -- -- 63
2019-10-11 00:00:00 9.1 3 Noroeste 6 Noroeste 0 -- -- 64
2019-10-10 23:00:00 10.3 3 Noroeste 8 Oeste 0 -- -- 60
2019-10-10 22:00:00 10.7 5 Noroeste 8 Noroeste 0 -- -- 60
2019-10-10 21:00:00 14.4 3 Noroeste 5 Noroeste 0 -- -- 47
2019-10-10 20:00:00 18.9 4 Sur 12 Sur 0 -- -- 35
2019-10-10 19:00:00 22 9 Sur 14 Sudeste 0 -- -- 31
2019-10-10 18:00:00 22.4 5 Este 17 Este 0 -- -- 30
2019-10-10 17:00:00 22.3 8 Sur 13 Este 0 -- -- 31
2019-10-10 16:00:00 20.8 5 Noroeste 15 Este 0 -- -- 36
2019-10-10 15:00:00 19.6 6 Nordeste 15 Este 0 -- -- 41
2019-10-10 14:00:00 18 5 Nordeste 19 Este 0 -- -- 45
2019-10-10 13:00:00 16.3 8 Este 21 Este 0 -- -- 51
2019-10-10 12:00:00 14.6 13 Nordeste 20 Nordeste 0 -- -- 55
2019-10-10 11:00:00 12 6 Nordeste 10 Nordeste 0 -- -- 66
2019-10-10 10:00:00 8.4 0 Calma 4 Noroeste 0 -- -- 82
2019-10-10 09:00:00 4.9 4 Noroeste 8 Noroeste 0 -- -- 90
2019-10-10 08:00:00 4.9 6 Noroeste 8 Noroeste 0 -- -- 90
2019-10-10 07:00:00 4.7 2 Noroeste 8 Noroeste 0 -- -- 89
2019-10-10 06:00:00 4.8 5 Noroeste 9 Noroeste 0 -- -- 88
2019-10-10 05:00:00 5.4 6 Norte 10 Noroeste 0 -- -- 85
2019-10-10 04:00:00 6.3 6 Noroeste 9 Noroeste 0 -- -- 83
2019-10-10 03:00:00 7.5 7 Noroeste 9 Noroeste 0 -- -- 81
2019-10-10 02:00:00 7.8 5 Noroeste 7 Noroeste 0 -- -- 78
2019-10-10 01:00:00 11.2 0 Calma 10 Este 0 -- -- 67
2019-10-10 00:00:00 12.2 4 Nordeste 17 Nordeste 0 -- -- 62
2019-10-09 23:00:00 13.4 9 Nordeste 18 Norte 0 -- -- 53
2019-10-09 22:00:00 14.6 8 Norte 14 Norte 0 -- -- 48
2019-10-09 21:00:00 16 9 Norte 21 Nordeste 0 -- -- 42
2019-10-09 20:00:00 18.4 11 Nordeste 19 Nordeste 0 -- -- 34
2019-10-09 19:00:00 21.3 9 Este 14 Este 0 -- -- 26
2019-10-09 18:00:00 22.1 6 Sudeste 13 Este 0 -- -- 24
2019-10-09 17:00:00 22 7 Sudeste 24 Sudeste 0 -- -- 25
2019-10-09 16:00:00 21.5 4 Noroeste 15 Nordeste 0 -- -- 26
2019-10-09 15:00:00 20.2 7 Este 20 Nordeste 0 -- -- 27
2019-10-09 14:00:00 18.9 9 Nordeste 22 Nordeste 0 -- -- 29
2019-10-09 13:00:00 17.8 14 Norte 24 Nordeste 0 -- -- 33
2019-10-09 12:00:00 16.5 14 Norte 24 Nordeste 0 -- -- 37
2019-10-09 11:00:00 14.1 15 Norte 23 Norte 0 -- -- 51
2019-10-09 10:00:00 10.5 3 Norte 8 Noroeste 0 -- -- 68
2019-10-09 09:00:00 7.7 0 Calma 13 Norte 0 -- -- 81
2019-10-09 08:00:00 8.4 9 Nordeste 18 Nordeste 0 -- -- 80
2019-10-09 07:00:00 9.1 6 Norte 16 Norte 0 -- -- 80
2019-10-09 06:00:00 10.2 8 Norte 14 Norte 0 -- -- 80
2019-10-09 05:00:00 11.2 3 Oeste 19 Norte 0 -- -- 81
2019-10-09 04:00:00 10.1 5 Sur 10 Noroeste 0 -- -- 87
2019-10-09 03:00:00 10.1 4 Noroeste 5 Noroeste 0 -- -- 88
2019-10-09 02:00:00 12.4 4 Oeste 8 Oeste 0 -- -- 83
2019-10-09 01:00:00 13.7 2 Oeste 6 Oeste 0 -- -- 80
2019-10-09 00:00:00 14.5 0 Calma 6 Noroeste 0 -- -- 76
2019-10-08 23:00:00 16.6 7 Noroeste 14 Noroeste 0 -- -- 70
2019-10-08 22:00:00 18.4 2 Nordeste 14 Noroeste 0 -- -- 63
2019-10-08 21:00:00 20.6 10 Noroeste 17 Noroeste 0 -- -- 56
2019-10-08 20:00:00 23.4 7 Oeste 30 Sudoeste 0 -- -- 48
2019-10-08 19:00:00 26 20 Sudoeste 32 Sudoeste 0 -- -- 41
2019-10-08 18:00:00 27.1 24 Sudoeste 35 Sur 0 -- -- 39
2019-10-08 17:00:00 28 21 Sudoeste 39 Sudoeste 0 -- -- 37
2019-10-08 16:00:00 28.2 18 Sudoeste 32 Sudoeste 0 -- -- 35
2019-10-08 15:00:00 27.6 5 Oeste 14 Oeste 0 -- -- 35
2019-10-08 14:00:00 25.3 4 Sudoeste 15 Sudoeste 0 -- -- 35
2019-10-08 13:00:00 22.7 5 Sur 11 Sudeste 0 -- -- 36
2019-10-08 12:00:00 20 0 Calma 8 Este 0 -- -- 45
2019-10-08 11:00:00 15.7 2 Sur 5 Sudoeste 0 -- -- 55
2019-10-08 10:00:00 11.5 0 Calma 3 Sudeste 0 -- -- 70
2019-10-08 09:00:00 7.6 2 Noroeste 4 Sudoeste 0 -- -- 80
2019-10-08 08:00:00 7.5 0 Calma 5 Oeste 0 -- -- 78
2019-10-08 07:00:00 8.5 3 Oeste 5 Sudoeste 0 -- -- 75
2019-10-08 06:00:00 10.2 3 Oeste 5 Sudoeste 0 -- -- 71
2019-10-08 05:00:00 9.6 0 Calma 7 Noroeste 0 -- -- 72
2019-10-08 04:00:00 11.4 5 Oeste 8 Noroeste 0 -- -- 66
2019-10-08 03:00:00 11.7 2 Oeste 9 Noroeste 0 -- -- 65
2019-10-08 02:00:00 11.5 8 Noroeste 11 Noroeste 0 -- -- 66
2019-10-08 01:00:00 12.6 3 Oeste 10 Noroeste 0 -- -- 62
2019-10-08 00:00:00 13.5 6 Noroeste 9 Noroeste 0 -- -- 60
2019-10-07 23:00:00 14.4 6 Noroeste 13 Noroeste 0 -- -- 57
2019-10-07 22:00:00 17.1 0 Calma 4 Noroeste 0 -- -- 50
2019-10-07 21:00:00 20 0 Calma 8 Sudeste 0 -- -- 44
2019-10-07 20:00:00 23.9 7 Sudeste 22 Sudeste 0 -- -- 34
2019-10-07 19:00:00 27.2 13 Sudeste 22 Sudeste 0 -- -- 29
2019-10-07 18:00:00 29.1 9 Sur 17 Sudoeste 0 -- -- 25
2019-10-07 17:00:00 28.7 8 Sur 17 Sur 0 -- -- 25
2019-10-07 16:00:00 27.6 5 Sur 15 Sur 0 -- -- 25
2019-10-07 15:00:00 26.1 5 Sur 12 Sur 0 -- -- 26
2019-10-07 14:00:00 23.2 3 Norte 12 Sudeste 0 -- -- 32
2019-10-07 13:00:00 20.3 3 Sudeste 9 Sudoeste 0 -- -- 47
2019-10-07 12:00:00 17.4 3 Sudeste 9 Sudeste 0 -- -- 58
2019-10-07 11:00:00 14.4 2 Sudoeste 5 Sur 0 -- -- 69
2019-10-07 10:00:00 10 0 Calma 5 Este 0 -- -- 72
2019-10-07 09:00:00 6.7 0 Calma 6 Oeste 0 -- -- 78
2019-10-07 08:00:00 6.1 3 Oeste 6 Oeste 0 -- -- 81
2019-10-07 07:00:00 6.2 3 Norte 6 Noroeste 0 -- -- 77
2019-10-07 06:00:00 6.8 3 Norte 7 Noroeste 0 -- -- 74
2019-10-07 05:00:00 8.1 2 Oeste 6 Oeste 0 -- -- 64
2019-10-07 04:00:00 8.7 2 Oeste 5 Sudoeste 0 -- -- 61
2019-10-07 03:00:00 10.4 4 Sur 10 Sudoeste 0 -- -- 54
2019-10-07 02:00:00 11.4 5 Sudoeste 10 Sur 0 -- -- 53
2019-10-07 01:00:00 11.3 0 Calma 10 Noroeste 0 -- -- 55
2019-10-07 00:00:00 12.4 4 Noroeste 7 Noroeste 0 -- -- 48
2019-10-06 23:00:00 14.6 5 Noroeste 10 Noroeste 0 -- -- 40
2019-10-06 22:00:00 16.1 8 Oeste 15 Sudoeste 0 -- -- 32
2019-10-06 21:00:00 18.6 6 Noroeste 13 Oeste 0 -- -- 35
2019-10-06 20:00:00 22.5 3 Noroeste 28 Oeste 0 -- -- 27
2019-10-06 19:00:00 24.9 12 Sudoeste 22 Sudoeste 0 -- -- 33
2019-10-06 18:00:00 25.1 15 Sudoeste 24 Sur 0 -- -- 32
2019-10-06 17:00:00 25.4 14 Sudoeste 24 Sudoeste 0 -- -- 29
2019-10-06 16:00:00 24.9 11 Sudoeste 25 Sur 0 -- -- 30
2019-10-06 15:00:00 23.6 11 Oeste 22 Sudoeste 0 -- -- 33
2019-10-06 14:00:00 21.6 9 Sur 15 Sudoeste 0 -- -- 42
2019-10-06 13:00:00 18.5 3 Sudoeste 10 Sur 0 -- -- 54
2019-10-06 12:00:00 15.4 3 Sudeste 7 Este 0 -- -- 59
2019-10-06 11:00:00 11.5 3 Oeste 6 Sur 0 -- -- 65
2019-10-06 10:00:00 7.2 0 Calma 2 Nordeste 0 -- -- 79
2019-10-06 09:00:00 4.7 0 Calma 4 Sudeste 0 -- -- 88
2019-10-06 08:00:00 4.3 0 Calma 6 Sudoeste 0 -- -- 88
2019-10-06 07:00:00 5 3 Sudoeste 6 Sudoeste 0 -- -- 85
2019-10-06 06:00:00 4.9 0 Calma 5 Sur 0 -- -- 87
2019-10-06 05:00:00 5.6 2 Sudoeste 5 Sudoeste 0 -- -- 84
2019-10-06 04:00:00 6.5 0 Calma 9 Nordeste 0 -- -- 82
2019-10-06 03:00:00 7.8 2 Sudeste 9 Oeste 0 -- -- 75
2019-10-06 02:00:00 8.5 3 Sur 5 Sur 0 -- -- 74
2019-10-06 01:00:00 10.8 2 Oeste 11 Este 0 -- -- 66
2019-10-06 00:00:00 12.6 2 Noroeste 9 Oeste 0 -- -- 66
2019-10-05 23:00:00 14.5 3 Norte 9 Oeste 0 -- -- 67
2019-10-05 22:00:00 17.2 6 Oeste 9 Oeste 0 -- -- 61
2019-10-05 21:00:00 19.2 5 Oeste 19 Sudoeste 0 -- -- 55
2019-10-05 20:00:00 20.9 9 Sudoeste 17 Sudoeste 0 -- -- 49
2019-10-05 19:00:00 23.4 13 Sudoeste 18 Sudoeste 0 -- -- 42
2019-10-05 18:00:00 24.8 10 Sudoeste 25 Sudoeste 0 -- -- 38
2019-10-05 17:00:00 25.1 11 Sudoeste 22 Sur 0 -- -- 32
2019-10-05 16:00:00 24.5 9 Sudoeste 20 Sudoeste 0 -- -- 39
2019-10-05 15:00:00 22.8 11 Sudoeste 20 Sudoeste 0 -- -- 47
2019-10-05 14:00:00 19.5 7 Sur 13 Sur 0 -- -- 61
2019-10-05 13:00:00 15.6 4 Oeste 8 Noroeste 0 -- -- 76
2019-10-05 12:00:00 13.5 3 Norte 9 Noroeste 0 -- -- 85
2019-10-05 11:00:00 12.6 2 Este 8 Nordeste 0 -- -- 88
2019-10-05 10:00:00 12.1 3 Nordeste 6 Este 0 -- -- 91
2019-10-05 09:00:00 10.7 0 Calma 4 Noroeste 0 -- -- 94
2019-10-05 08:00:00 9.4 0 Calma 5 Noroeste 0 -- -- 95
2019-10-05 07:00:00 8.3 5 Noroeste 6 Noroeste 0 -- -- 93
2019-10-05 06:00:00 8.5 2 Noroeste 3 Noroeste 0 -- -- 93
2019-10-05 05:00:00 8.8 0 Calma 8 Noroeste 0 -- -- 87
2019-10-05 04:00:00 10.1 4 Noroeste 5 Noroeste 0 -- -- 91
2019-10-05 03:00:00 9 0 Calma 3 Norte 0 -- -- 85
2019-10-05 02:00:00 9.8 2 Oeste 4 Oeste 0 -- -- 84
2019-10-05 01:00:00 11 0 Calma 5 Oeste 0 -- -- 81
2019-10-05 00:00:00 12.6 3 Oeste 7 Noroeste 0 -- -- 75
2019-10-04 23:00:00 14.1 4 Noroeste 8 Oeste 0 -- -- 71
2019-10-04 22:00:00 16.8 4 Noroeste 9 Oeste 0 -- -- 62
2019-10-04 21:00:00 18.9 5 Oeste 13 Sudoeste 0 -- -- 55
2019-10-04 20:00:00 21.7 9 Sudoeste 25 Sudoeste 0 -- -- 47
2019-10-04 19:00:00 24.1 15 Sudoeste 24 Sudoeste 0 -- -- 41
2019-10-04 18:00:00 25.3 15 Sudoeste 23 Sudoeste 0 -- -- 39
2019-10-04 17:00:00 25.3 12 Sudoeste 20 Oeste 0 -- -- 40
2019-10-04 16:00:00 24.4 8 Sudoeste 20 Sur 0 -- -- 42
2019-10-04 15:00:00 23.3 8 Sudeste 17 Sudeste 0 -- -- 48
2019-10-04 14:00:00 22.3 8 Sudeste 23 Sudeste 0 -- -- 54
2019-10-04 13:00:00 20.8 7 Sudeste 16 Este 0 -- -- 59
2019-10-04 12:00:00 19.2 5 Este 13 Sudeste 0 -- -- 64
2019-10-04 11:00:00 16.4 0 Calma 5 Sur 0 -- -- 71
2019-10-04 10:00:00 11.3 0 Calma 4 Noroeste 0 -- -- 82
2019-10-04 09:00:00 7.6 2 Sudoeste 9 Sudoeste 0 -- -- 91
2019-10-04 08:00:00 6.9 0 Calma 4 Sudoeste 0 -- -- 89
2019-10-04 07:00:00 7.7 3 Sur 7 Oeste 0 -- -- 90
2019-10-04 06:00:00 8 5 Noroeste 6 Noroeste 0 -- -- 92
2019-10-04 05:00:00 8.5 2 Noroeste 5 Noroeste 0 -- -- 89
2019-10-04 04:00:00 9 0 Calma 3 Este 0 -- -- 83
2019-10-04 03:00:00 9.7 0 Calma 3 Nordeste 0 -- -- 82
2019-10-04 02:00:00 11.5 0 Calma 9 Sudoeste 0 -- -- 76
2019-10-04 01:00:00 12.3 3 Oeste 5 Oeste 0 -- -- 74
2019-10-04 00:00:00 14.1 2 Este 5 Este 0 -- -- 66
2019-10-03 23:00:00 15.5 5 Este 9 Noroeste 0 -- -- 62
2019-10-03 22:00:00 17.4 4 Noroeste 11 Noroeste 0 -- -- 56
2019-10-03 21:00:00 19.6 5 Noroeste 15 Oeste 0 -- -- 49
2019-10-03 20:00:00 23.2 9 Oeste 18 Sudoeste 0 -- -- 33
2019-10-03 19:00:00 26.1 11 Sudoeste 18 Sudoeste 0 -- -- 29
2019-10-03 18:00:00 26.6 8 Sur 18 Sur 0 -- -- 28
2019-10-03 17:00:00 26.1 10 Sudoeste 18 Sudoeste 0 -- -- 29
2019-10-03 16:00:00 25.5 9 Sudeste 15 Sur 0 -- -- 29
2019-10-03 15:00:00 23.7 4 Nordeste 14 Sudoeste 0 -- -- 33
2019-10-03 14:00:00 22 7 Sudoeste 17 Sudoeste 0 -- -- 37
2019-10-03 13:00:00 19 7 Sudoeste 15 Sur 0 -- -- 50
2019-10-03 12:00:00 15.6 5 Sudoeste 10 Sudoeste 0 -- -- 59
2019-10-03 11:00:00 11.6 3 Noroeste 6 Noroeste 0 -- -- 73
2019-10-03 10:00:00 8 0 Calma 3 Sudeste 0 -- -- 84
2019-10-03 09:00:00 4.8 0 Calma 4 Sudoeste 0 -- -- 90
2019-10-03 08:00:00 5.2 2 Sudoeste 4 Oeste 0 -- -- 88
2019-10-03 07:00:00 6.9 4 Oeste 9 Oeste 0 -- -- 91
2019-10-03 06:00:00 7.5 6 Noroeste 7 Noroeste 0 -- -- 88
2019-10-03 05:00:00 7.4 7 Noroeste 9 Noroeste 0 -- -- 87
2019-10-03 04:00:00 8 5 Noroeste 7 Noroeste 0 -- -- 83
2019-10-03 03:00:00 8.8 5 Noroeste 6 Noroeste 0 -- -- 78
2019-10-03 02:00:00 9.8 5 Noroeste 6 Noroeste 0 -- -- 72
2019-10-03 01:00:00 9.5 0 Calma 18 Este 0 -- -- 70
2019-10-03 00:00:00 8.9 0 Calma 0 Calma 0 -- -- 71
2019-10-02 23:00:00 10.1 0 Calma 0 Calma 0 -- -- 67
2019-10-02 22:00:00 12.1 0 Calma 2 Sur 0 -- -- 59
2019-10-02 21:00:00 15.9 2 Este 9 Este 0 -- -- 46
2019-10-02 20:00:00 19.2 4 Sudeste 12 Este 0 -- -- 39
2019-10-02 19:00:00 21.6 4 Este 14 Sudeste 0 -- -- 34
2019-10-02 18:00:00 21.9 10 Nordeste 18 Este 0 -- -- 34
2019-10-02 17:00:00 21.7 8 Nordeste 20 Este 0 -- -- 34
2019-10-02 16:00:00 21.4 8 Norte 20 Norte 0 -- -- 35
2019-10-02 15:00:00 20.5 10 Norte 19 Nordeste 0 -- -- 38
2019-10-02 14:00:00 19.2 8 Nordeste 21 Norte 0 -- -- 41
2019-10-02 13:00:00 18.2 10 Norte 26 Noroeste 0 -- -- 43
2019-10-02 12:00:00 16.8 18 Norte 29 Norte 0 -- -- 46
2019-10-02 11:00:00 15.8 17 Norte 29 Noroeste 0 -- -- 49
2019-10-02 10:00:00 12.7 12 Noroeste 18 Noroeste 0 -- -- 62
2019-10-02 09:00:00 9.4 8 Norte 18 Noroeste 0 -- -- 73
2019-10-02 08:00:00 7.5 10 Noroeste 14 Noroeste 0 -- -- 79
2019-10-02 07:00:00 8.1 7 Norte 11 Norte 0 -- -- 78
2019-10-02 06:00:00 9.2 7 Noroeste 21 Noroeste 0 -- -- 73
2019-10-02 05:00:00 10.2 12 Noroeste 19 Noroeste 0 -- -- 71
2019-10-02 04:00:00 10.2 12 Noroeste 19 Noroeste 0 -- -- 72
2019-10-02 03:00:00 9.5 3 Noroeste 6 Nordeste 0 -- -- 72
2019-10-02 02:00:00 9.4 2 Nordeste 5 Noroeste 0 -- -- 72
2019-10-02 01:00:00 11.7 5 Oeste 14 Noroeste 0 -- -- 64
2019-10-02 00:00:00 13.6 2 Sudoeste 18 Noroeste 0 -- -- 59
2019-10-01 23:00:00 14.8 12 Noroeste 23 Noroeste 0 -- -- 55
2019-10-01 22:00:00 15.3 10 Oeste 15 Oeste 0 -- -- 57
2019-10-01 21:00:00 17 10 Oeste 26 Oeste 0 -- -- 50
2019-10-01 20:00:00 19.8 13 Oeste 31 Oeste 0 -- -- 44
2019-10-01 19:00:00 22.1 18 Oeste 30 Oeste 0 -- -- 36
2019-10-01 18:00:00 23.5 17 Sudoeste 37 Oeste 0 -- -- 32
2019-10-01 17:00:00 24.2 15 Oeste 28 Noroeste 0 -- -- 31
2019-10-01 16:00:00 24.4 12 Oeste 38 Noroeste 0 -- -- 33
2019-10-01 15:00:00 23.4 14 Noroeste 33 Noroeste 0 -- -- 36
2019-10-01 14:00:00 22.6 9 Noroeste 24 Sudoeste 0 -- -- 43
2019-10-01 13:00:00 20.6 11 Noroeste 23 Norte 0 -- -- 52
2019-10-01 12:00:00 18.8 10 Sudoeste 17 Sudoeste 0 -- -- 62
2019-10-01 11:00:00 15.7 3 Noroeste 12 Sudoeste 0 -- -- 74
2019-10-01 10:00:00 12.7 5 Sudoeste 9 Sudoeste 0 -- -- 87
2019-10-01 09:00:00 10.5 4 Sudoeste 9 Oeste 0 -- -- 95
2019-10-01 08:00:00 9.4 4 Noroeste 7 Noroeste 0 -- -- 88
2019-10-01 07:00:00 10.2 8 Noroeste 12 Oeste 0 -- -- 87
2019-10-01 06:00:00 10.8 4 Sudoeste 10 Nordeste 0 -- -- 87
2019-10-01 05:00:00 11.4 4 Noroeste 10 Oeste 0 -- -- 81
2019-10-01 04:00:00 11.1 3 Noroeste 6 Noroeste 0 -- -- 82
2019-10-01 03:00:00 11.5 4 Noroeste 7 Noroeste 0 -- -- 80
2019-10-01 02:00:00 12.5 2 Noroeste 6 Noroeste 0 -- -- 77
2019-10-01 01:00:00 13.2 4 Noroeste 9 Oeste 0 -- -- 73
2019-10-01 00:00:00 15.2 5 Sudoeste 8 Sudoeste 0 -- -- 66
2019-09-30 23:00:00 17 2 Oeste 10 Noroeste 0 -- -- 62
2019-09-30 22:00:00 18.5 5 Noroeste 14 Sudoeste 0 -- -- 56
2019-09-30 21:00:00 21.6 8 Oeste 19 Oeste 0 -- -- 47
2019-09-30 20:00:00 24.1 14 Oeste 25 Oeste 0 -- -- 39
2019-09-30 19:00:00 26.3 17 Sudoeste 32 Sudoeste 0 -- -- 35
2019-09-30 18:00:00 27 15 Oeste 36 Sur 0 -- -- 36
2019-09-30 17:00:00 27.2 15 Sudoeste 29 Sur 0 -- -- 37
2019-09-30 16:00:00 27.1 15 Sudoeste 28 Sudoeste 0 -- -- 38
2019-09-30 15:00:00 25.9 12 Oeste 24 Oeste 0 -- -- 45
2019-09-30 14:00:00 24.8 5 Sudoeste 31 Oeste 0 -- -- 50
2019-09-30 13:00:00 22.5 4 Este 18 Este 0 -- -- 57
2019-09-30 12:00:00 20.3 5 Este 9 Este 0 -- -- 63
2019-09-30 11:00:00 17.5 2 Sur 6 Sur 0 -- -- 73
2019-09-30 10:00:00 13.1 0 Calma 4 Sur 0 -- -- 83
2019-09-30 09:00:00 8.9 3 Sudoeste 4 Sudoeste 0 -- -- 93
2019-09-30 08:00:00 7.6 0 Calma 6 Noroeste 0 -- -- 93
2019-09-30 07:00:00 8.2 3 Oeste 4 Oeste 0 -- -- 93
2019-09-30 06:00:00 8.5 0 Calma 5 Noroeste 0 -- -- 92
2019-09-30 05:00:00 9.3 3 Noroeste 8 Noroeste 0 -- -- 92
2019-09-30 04:00:00 9.8 0 Calma 4 Norte 0 -- -- 87
2019-09-30 03:00:00 11.3 0 Calma 5 Noroeste 0 -- -- 85
2019-09-30 02:00:00 12.3 0 Calma 8 Oeste 0 -- -- 84
2019-09-30 01:00:00 13.8 2 Oeste 10 Sudoeste 0 -- -- 83
2019-09-30 00:00:00 16.6 4 Oeste 9 Noroeste 0 -- -- 74
2019-09-29 23:00:00 17.7 5 Noroeste 14 Oeste 0 -- -- 71
2019-09-29 22:00:00 19.4 11 Noroeste 20 Oeste 0 -- -- 65
2019-09-29 21:00:00 21.4 9 Oeste 24 Oeste 0 -- -- 57
2019-09-29 20:00:00 23.4 15 Oeste 35 Oeste 0 -- -- 49
2019-09-29 19:00:00 25.3 21 Sudoeste 39 Sudoeste 0 -- -- 41
2019-09-29 18:00:00 26.5 22 Sudoeste 38 Sudoeste 0 -- -- 37
2019-09-29 17:00:00 27.2 23 Sudoeste 36 Sudoeste 0 -- -- 32
2019-09-29 16:00:00 27.4 20 Sudoeste 34 Sudoeste 0 -- -- 28
2019-09-29 15:00:00 26.7 17 Oeste 30 Sudoeste 0 -- -- 30
2019-09-29 14:00:00 25.6 8 Sudeste 18 Sudeste 0 -- -- 31
2019-09-29 13:00:00 22.6 3 Sudoeste 14 Sudoeste 0 -- -- 33
2019-09-29 12:00:00 19 8 Sudoeste 13 Sudoeste 0 -- -- 33
2019-09-29 11:00:00 14.2 4 Este 7 Este 0 -- -- 45
2019-09-29 10:00:00 8.1 0 Calma 6 Noroeste 0 -- -- 65
2019-09-29 09:00:00 3.4 0 Calma 9 Noroeste 0 -- -- 82
2019-09-29 08:00:00 2.8 2 Noroeste 5 Sudoeste 0 -- -- 79
2019-09-29 07:00:00 2.9 2 Oeste 6 Noroeste 0 -- -- 77
2019-09-29 06:00:00 4 0 Calma 6 Noroeste 0 -- -- 76
2019-09-29 05:00:00 4.9 2 Noroeste 10 Noroeste 0 -- -- 75
2019-09-29 04:00:00 6.3 0 Calma 6 Oeste 0 -- -- 70
2019-09-29 03:00:00 6.1 5 Noroeste 6 Noroeste 0 -- -- 73
2019-09-29 02:00:00 7.9 0 Calma 5 Sur 0 -- -- 64
2019-09-29 01:00:00 8.6 4 Noroeste 10 Oeste 0 -- -- 61
2019-09-29 00:00:00 10.3 2 Sur 10 Oeste 0 -- -- 57
2019-09-28 23:00:00 14.2 9 Oeste 11 Sudoeste 0 -- -- 47
2019-09-28 22:00:00 16.7 5 Noroeste 14 Sudoeste 0 -- -- 41
2019-09-28 21:00:00 19.6 6 Sudoeste 9 Sudoeste 0 -- -- 34
2019-09-28 20:00:00 22.9 8 Sudoeste 22 Sudoeste 0 -- -- 26
2019-09-28 19:00:00 25.6 15 Sudoeste 24 Sudoeste 0 -- -- 19
2019-09-28 18:00:00 26.5 12 Oeste 25 Sur 0 -- -- 19
2019-09-28 17:00:00 25.7 11 Sur 24 Sur 0 -- -- 31
2019-09-28 16:00:00 24.1 8 Sur 17 Sudoeste 0 -- -- 35
2019-09-28 15:00:00 21.4 4 Oeste 14 Oeste 0 -- -- 43
2019-09-28 14:00:00 19.1 6 Oeste 12 Sudoeste 0 -- -- 51
2019-09-28 13:00:00 16 5 Nordeste 12 Norte 0 -- -- 68
2019-09-28 12:00:00 12.8 5 Norte 13 Nordeste 0 -- -- 81
2019-09-28 11:00:00 10.4 7 Norte 14 Norte 0 -- -- 93
2019-09-28 10:00:00 8.4 10 Norte 19 Norte 0 -- -- 96
2019-09-28 09:00:00 5 7 Noroeste 10 Noroeste 0 -- -- 94
2019-09-28 08:00:00 3.2 4 Noroeste 6 Noroeste 0 -- -- 92
2019-09-28 07:00:00 3.7 0 Calma 3 Oeste 0 -- -- 89
2019-09-28 06:00:00 3.9 2 Noroeste 4 Sur 0 -- -- 89
2019-09-28 05:00:00 4.9 3 Noroeste 4 Noroeste 0 -- -- 90
2019-09-28 04:00:00 5.5 3 Noroeste 5 Noroeste 0 -- -- 90
2019-09-28 03:00:00 7 4 Noroeste 5 Noroeste 0 -- -- 88
2019-09-28 02:00:00 8.1 3 Oeste 6 Sudoeste 0 -- -- 86
2019-09-28 01:00:00 9 0 Calma 10 Noroeste 0 -- -- 82
2019-09-28 00:00:00 10.4 0 Calma 8 Oeste 0 -- -- 78
2019-09-27 23:00:00 12.1 3 Norte 6 Norte 0 -- -- 73
2019-09-27 22:00:00 14.8 4 Oeste 7 Oeste 0 -- -- 66
2019-09-27 21:00:00 16.9 5 Noroeste 15 Noroeste 0 -- -- 59
2019-09-27 20:00:00 19.9 9 Noroeste 29 Oeste 0 -- -- 52
2019-09-27 19:00:00 22.6 15 Oeste 33 Oeste 0 -- -- 48
2019-09-27 18:00:00 24.4 18 Sudoeste 33 Sudoeste 0 -- -- 44
2019-09-27 17:00:00 24.5 8 Oeste 22 Oeste 0 -- -- 42
2019-09-27 16:00:00 25 10 Oeste 23 Oeste 0 -- -- 39
2019-09-27 15:00:00 24.4 9 Sudoeste 23 Oeste 0 -- -- 33
2019-09-27 14:00:00 23.3 12 Sudoeste 24 Sudoeste 0 -- -- 35
2019-09-27 13:00:00 21.9 11 Sudoeste 22 Sur 0 -- -- 36
2019-09-27 12:00:00 18.2 4 Sur 9 Sudoeste 0 -- -- 46
2019-09-27 11:00:00 13 2 Sudoeste 5 Oeste 0 -- -- 59
2019-09-27 10:00:00 7.9 0 Calma 3 Este 0 -- -- 74
2019-09-27 09:00:00 3.9 2 Sudoeste 3 Sur 0 -- -- 87
2019-09-27 08:00:00 3 0 Calma 5 Noroeste 0 -- -- 90
2019-09-27 07:00:00 3.3 4 Sudeste 7 Sudeste 0 -- -- 86
2019-09-27 06:00:00 4.3 4 Oeste 8 Noroeste 0 -- -- 85
2019-09-27 05:00:00 4.8 0 Calma 3 Sudoeste 0 -- -- 81
2019-09-27 04:00:00 5.5 3 Noroeste 6 Noroeste 0 -- -- 79
2019-09-27 03:00:00 7 2 Oeste 7 Noroeste 0 -- -- 74
2019-09-27 02:00:00 7.9 4 Noroeste 10 Noroeste 0 -- -- 70
2019-09-27 01:00:00 9.1 5 Noroeste 7 Noroeste 0 -- -- 66
2019-09-27 00:00:00 9.7 5 Norte 6 Norte 0 -- -- 65
2019-09-26 23:00:00 13.6 7 Noroeste 10 Noroeste 0 -- -- 53
2019-09-26 22:00:00 16.1 0 Calma 10 Noroeste 0 -- -- 50
2019-09-26 21:00:00 19.6 5 Noroeste 20 Oeste 0 -- -- 48
2019-09-26 20:00:00 22.9 9 Sudoeste 22 Sudoeste 0 -- -- 38
2019-09-26 19:00:00 25.2 17 Sudoeste 24 Sudoeste 0 -- -- 30
2019-09-26 18:00:00 26.2 16 Sur 25 Sur 0 -- -- 27
2019-09-26 17:00:00 26.1 8 Sudoeste 21 Sur 0 -- -- 28
2019-09-26 16:00:00 25.3 12 Sudoeste 22 Sudoeste 0 -- -- 29
2019-09-26 15:00:00 24.2 12 Sudoeste 21 Sudoeste 0 -- -- 30
2019-09-26 14:00:00 21.5 5 Sudoeste 19 Sudoeste 0 -- -- 41
2019-09-26 13:00:00 19.4 4 Sur 10 Sur 0 -- -- 53
2019-09-26 12:00:00 16.6 3 Sur 13 Sudeste 0 -- -- 64
2019-09-26 11:00:00 14.6 5 Sur 10 Sudeste 0 -- -- 71
2019-09-26 10:00:00 10.9 0 Calma 4 Noroeste 0 -- -- 87
2019-09-26 09:00:00 6.7 2 Noroeste 3 Noroeste 0 -- -- 92
2019-09-26 08:00:00 5.8 0 Calma 4 Oeste 0 -- -- 92
2019-09-26 07:00:00 6.2 0 Calma 5 Noroeste 0 -- -- 91
2019-09-26 06:00:00 6.9 2 Oeste 9 Noroeste 0 -- -- 92
2019-09-26 05:00:00 7.6 5 Noroeste 9 Noroeste 0 -- -- 91
2019-09-26 04:00:00 8.1 2 Norte 6 Sudoeste 0 -- -- 89
2019-09-26 03:00:00 9.5 4 Sudeste 6 Sudoeste 0 -- -- 85
2019-09-26 02:00:00 11.1 0 Calma 4 Noroeste 0 -- -- 79
2019-09-26 01:00:00 11.6 4 Noroeste 8 Noroeste 0 -- -- 79
2019-09-26 00:00:00 13.5 4 Noroeste 8 Noroeste 0 -- -- 73
2019-09-25 23:00:00 14.4 2 Noroeste 8 Norte 0 -- -- 71
2019-09-25 22:00:00 15.7 4 Este 15 Oeste 0 -- -- 65
2019-09-25 21:00:00 17.3 8 Sudoeste 19 Oeste 0 -- -- 58
2019-09-25 20:00:00 20 13 Oeste 20 Oeste 0 -- -- 50
2019-09-25 19:00:00 21.9 12 Sudoeste 28 Sudoeste 0 -- -- 45
2019-09-25 18:00:00 22 15 Sudoeste 22 Sur 0 -- -- 43
2019-09-25 17:00:00 22.1 14 Sur 25 Sur 0 -- -- 42
2019-09-25 16:00:00 21.9 11 Sudoeste 27 Sudoeste 0 -- -- 40
2019-09-25 15:00:00 21.3 11 Oeste 22 Sudoeste 0 -- -- 42
2019-09-25 14:00:00 20.1 7 Sur 19 Sur 0 -- -- 44
2019-09-25 13:00:00 18.5 5 Oeste 23 Sudoeste 0 -- -- 49
2019-09-25 12:00:00 17 9 Sudoeste 21 Sudoeste 0 -- -- 52
2019-09-25 11:00:00 14.8 9 Sudoeste 13 Sudoeste 0 -- -- 61
2019-09-25 10:00:00 9.8 3 Oeste 10 Sudoeste 0 -- -- 83
2019-09-25 09:00:00 6.1 0 Calma 10 Sur 0 -- -- 92
2019-09-25 08:00:00 5.4 4 Noroeste 8 Noroeste 0 -- -- 91
2019-09-25 07:00:00 5.9 3 Nordeste 7 Sur 0 -- -- 88
2019-09-25 06:00:00 7.5 3 Sudoeste 12 Sudoeste 0 -- -- 84
2019-09-25 05:00:00 7.7 3 Sudoeste 10 Este 0 -- -- 83
2019-09-25 04:00:00 8.6 0 Calma 8 Noroeste 0 -- -- 77
2019-09-25 03:00:00 9 7 Sudeste 17 Este 0 -- -- 79
2019-09-25 02:00:00 9.6 4 Norte 10 Oeste 0 -- -- 75
2019-09-25 01:00:00 10.8 3 Oeste 8 Sudeste 0 -- -- 74
2019-09-25 00:00:00 12.1 3 Norte 12 Oeste 0 -- -- 68
2019-09-24 23:00:00 13.5 5 Norte 18 Oeste 0 -- -- 66
2019-09-24 22:00:00 14.7 9 Oeste 24 Oeste 0 -- -- 65
2019-09-24 21:00:00 16.9 12 Sudoeste 31 Sudoeste 0 -- -- 59
2019-09-24 20:00:00 19 17 Sudoeste 34 Oeste 0 -- -- 53
2019-09-24 19:00:00 20.8 22 Oeste 45 Oeste 0 -- -- 46
2019-09-24 18:00:00 21.9 26 Sudoeste 47 Sudoeste 0 -- -- 45
2019-09-24 17:00:00 21.4 24 Oeste 43 Oeste 0 -- -- 53
2019-09-24 16:00:00 22.1 28 Sudoeste 46 Oeste 0 -- -- 54
2019-09-24 15:00:00 21.4 25 Sudoeste 46 Oeste 0 -- -- 56
2019-09-24 14:00:00 20 24 Sudoeste 40 Sudoeste 0 -- -- 64
2019-09-24 13:00:00 19.1 25 Sudoeste 39 Sudoeste 0 -- -- 66
2019-09-24 12:00:00 18 26 Sudoeste 39 Sudoeste 0 -- -- 69
2019-09-24 11:00:00 16.9 22 Sudoeste 34 Sudoeste 0 -- -- 72
2019-09-24 10:00:00 14.6 21 Sudoeste 32 Sudoeste 0 -- -- 80
2019-09-24 09:00:00 13.5 14 Sudoeste 24 Sudoeste 0 -- -- 83
2019-09-24 08:00:00 13.4 7 Sudoeste 30 Sudoeste 0 -- -- 81
2019-09-24 07:00:00 13.7 8 Sudoeste 29 Sudoeste 0 -- -- 81
2019-09-24 06:00:00 13.3 20 Sudoeste 32 Sudoeste 0 -- -- 81
2019-09-24 05:00:00 13.4 16 Sudoeste 29 Sudoeste 0 -- -- 80
2019-09-24 04:00:00 13.1 11 Sudoeste 21 Oeste 0 -- -- 80
2019-09-24 03:00:00 13.1 6 Sur 21 Sudoeste 0 -- -- 78
2019-09-24 02:00:00 13.8 13 Sudoeste 21 Sudoeste 0 -- -- 75
2019-09-24 01:00:00 14.5 10 Oeste 21 Oeste 0 -- -- 72
2019-09-24 00:00:00 14.7 9 Sur 25 Sudoeste 0 -- -- 71
2019-09-23 23:00:00 15.1 4 Sudoeste 8 Sudoeste 0 -- -- 70
2019-09-23 22:00:00 15.6 5 Sur 17 Sudoeste 0 -- -- 66
2019-09-23 21:00:00 17.6 14 Sudoeste 28 Oeste 0 -- -- 58
2019-09-23 20:00:00 18.9 18 Sudoeste 37 Sudoeste 0 -- -- 53
2019-09-23 19:00:00 20.4 22 Sudoeste 35 Sudoeste 0 -- -- 47
2019-09-23 18:00:00 21.7 20 Oeste 35 Sudoeste 0 -- -- 42
2019-09-23 17:00:00 21.4 18 Sudoeste 32 Sudoeste 0 -- -- 49
2019-09-23 16:00:00 19.8 22 Sudoeste 33 Sudoeste 0 -- -- 52
2019-09-23 15:00:00 20 19 Sudoeste 31 Sudoeste 0 -- -- 51
2019-09-23 14:00:00 18.8 14 Sudoeste 27 Sudoeste 0 -- -- 54
2019-09-23 13:00:00 16.9 17 Sudoeste 30 Sudoeste 0 -- -- 60
2019-09-23 12:00:00 14.8 6 Oeste 17 Sudoeste 0 -- -- 70
2019-09-23 11:00:00 12.8 5 Sudoeste 12 Sudoeste 0 -- -- 80
2019-09-23 10:00:00 9.2 3 Oeste 5 Oeste 0 -- -- 92
2019-09-23 09:00:00 7 4 Noroeste 5 Oeste 0 -- -- 95
2019-09-23 08:00:00 5.8 2 Noroeste 7 Norte 0 -- -- 95
2019-09-23 07:00:00 5.9 0 Calma 3 Sudoeste 0 -- -- 94
2019-09-23 06:00:00 5.9 0 Calma 6 Nordeste 0 -- -- 94
2019-09-23 05:00:00 6.5 2 Este 9 Sur 0 -- -- 93
2019-09-23 04:00:00 7 4 Este 6 Este 0 -- -- 91
2019-09-23 03:00:00 8.3 2 Sudoeste 4 Oeste 0 -- -- 89
2019-09-23 02:00:00 8.9 0 Calma 4 Sudeste 0 -- -- 86
2019-09-23 01:00:00 10.1 3 Noroeste 5 Oeste 0 -- -- 83
2019-09-23 00:00:00 10.6 0 Calma 13 Oeste 0 -- -- 78
2019-09-22 23:00:00 12.2 0 Calma 14 Oeste 0 -- -- 72
2019-09-22 22:00:00 13.9 9 Oeste 24 Sudoeste 0 -- -- 65
2019-09-22 21:00:00 15.4 11 Sudoeste 28 Oeste 0 -- -- 58
2019-09-22 20:00:00 17.6 18 Sudoeste 36 Sudoeste 0 -- -- 50
2019-09-22 19:00:00 20 19 Sudoeste 34 Oeste 0 -- -- 42
2019-09-22 18:00:00 19.8 19 Sudoeste 35 Sudoeste 0 -- -- 41
2019-09-22 17:00:00 20.2 22 Sudoeste 39 Sudoeste 0 -- -- 39
2019-09-22 16:00:00 20.1 14 Oeste 35 Sudoeste 0 -- -- 40
2019-09-22 15:00:00 19.4 18 Oeste 36 Sudoeste 0 -- -- 44
2019-09-22 14:00:00 18.3 16 Sudoeste 31 Sudoeste 0 -- -- 52
2019-09-22 13:00:00 17 15 Sudoeste 33 Sudoeste 0 -- -- 59
2019-09-22 12:00:00 14.7 12 Sudoeste 22 Sudoeste 0 -- -- 70
2019-09-22 11:00:00 14.2 12 Sudoeste 20 Sudoeste 0 -- -- 79
2019-09-22 10:00:00 11.9 12 Sudoeste 17 Sudoeste 0 -- -- 92
2019-09-22 09:00:00 10.3 2 Oeste 9 Sudoeste 0 -- -- 94
2019-09-22 08:00:00 9.8 3 Norte 9 Noroeste 0 -- -- 94
2019-09-22 07:00:00 9.7 2 Oeste 13 Sudoeste 0 -- -- 94
2019-09-22 06:00:00 10.1 5 Sudoeste 12 Sudoeste 0 -- -- 92
2019-09-22 05:00:00 10.6 7 Sudoeste 20 Sudoeste 0 -- -- 92
2019-09-22 04:00:00 10.9 13 Sudoeste 27 Sudoeste 0 -- -- 92
2019-09-22 03:00:00 11.2 18 Sudoeste 38 Sudoeste 0 -- -- 90
2019-09-22 02:00:00 11.8 19 Sudoeste 30 Sudoeste 0 -- -- 90
2019-09-22 01:00:00 12 14 Sudoeste 23 Sudoeste 0 -- -- 89
2019-09-22 00:00:00 13.1 17 Sudoeste 39 Sudoeste 0.2 -- -- 89